ADDS METAR Data INFO
IDs: Format: Raw Decoded Include TAF

Data at: 0006 UTC 19 Jul 2018

METAR for:EBFS (Florennes(AB), --, BX)
Text:EBFS 182355Z AUTO //////KT 9999 NCD 16/11 Q1020 BLU
Temperature: 16.0°C ( 61°F)
Dewpoint: 11.0°C ( 52°F) [RH = 72%]
Pressure (altimeter):30.12 inches Hg (1020.0 mb)
Visibility:6 or more sm (10+ km)
Ceiling:at least 12,000 feet AGL
Clouds:sky clear below 12,000 feet AGL

TAF for:EBFS (Florennes(AB), --, BX) issued at 1541 UTC 18 Jul 2018
Text:TAF EBFS 181541Z 1819/1907 VRB02KT 9999 FEW060
Forecast period:1900 UTC 18 July 2018 to 0700 UTC 19 July 2018
Forecast type:FROM: standard forecast or significant change
Winds:variable direction winds at 2 MPH (2 knots; 1.0 m/s)
Visibility:6 or more sm (10+ km)
Ceiling:at least 12,000 feet AGL
Clouds: few clouds at 6000 feet AGL